createdAt,value
2019-03-01T00:01:04.833Z,99.90
2019-03-01T00:03:38.343Z,99.90
2019-03-01T00:06:38.372Z,99.90
2019-03-01T00:09:29.578Z,99.90
2019-03-01T00:12:23.282Z,99.90
2019-03-01T00:15:16.401Z,99.90
2019-03-01T00:18:21.989Z,99.90
2019-03-01T00:20:58.102Z,99.90
2019-03-01T00:23:59.618Z,99.90
2019-03-01T00:26:56.818Z,99.90
2019-03-01T00:30:09.675Z,99.90
2019-03-01T00:32:45.784Z,99.90
2019-03-01T00:36:11.499Z,99.90
2019-03-01T00:39:12.047Z,99.90
2019-03-01T00:42:05.963Z,99.90
2019-03-01T00:44:47.997Z,99.90
2019-03-01T00:47:19.732Z,99.90
2019-03-01T00:49:51.159Z,99.90
2019-03-01T00:52:22.532Z,99.90
2019-03-01T00:54:53.913Z,99.90
2019-03-01T00:57:25.372Z,99.90
2019-03-01T00:59:56.773Z,99.90
2019-03-01T01:02:28.150Z,99.90
2019-03-01T01:04:59.496Z,99.90
2019-03-01T01:07:30.858Z,99.90
2019-03-01T01:10:02.216Z,99.90
2019-03-01T01:12:35.533Z,99.90
2019-03-01T01:15:08.387Z,99.90
2019-03-01T01:17:39.813Z,99.90
2019-03-01T01:20:11.496Z,99.90
2019-03-01T01:22:42.944Z,99.90
2019-03-01T01:25:14.338Z,99.90
2019-03-01T01:27:45.743Z,99.90
2019-03-01T01:30:17.208Z,99.90
2019-03-01T01:32:48.590Z,99.90
2019-03-01T01:35:19.922Z,99.90
2019-03-01T01:37:51.240Z,99.90
2019-03-01T01:40:22.503Z,99.90
2019-03-01T01:42:53.983Z,99.90
2019-03-01T01:45:25.394Z,99.90
2019-03-01T01:47:56.887Z,99.90
2019-03-01T01:50:28.370Z,99.90
2019-03-01T01:52:59.730Z,99.90
2019-03-01T01:55:31.001Z,99.90
2019-03-01T01:58:02.498Z,99.90
2019-03-01T02:00:33.953Z,99.90
2019-03-01T02:03:08.208Z,99.90
2019-03-01T02:05:39.619Z,99.90
2019-03-01T02:08:11.069Z,99.90
2019-03-01T02:10:42.387Z,99.90
2019-03-01T02:13:13.960Z,99.90
2019-03-01T02:15:45.542Z,99.90
2019-03-01T02:18:16.924Z,99.90
2019-03-01T02:20:48.250Z,99.90
2019-03-01T02:23:19.759Z,99.90
2019-03-01T02:25:51.079Z,99.90
2019-03-01T02:28:22.456Z,99.90
2019-03-01T02:30:58.679Z,99.90
2019-03-01T02:33:30.080Z,99.90
2019-03-01T02:36:01.405Z,99.90
2019-03-01T02:38:32.920Z,99.90
2019-03-01T02:41:04.437Z,99.90
2019-03-01T02:43:35.917Z,99.90
2019-03-01T02:46:07.357Z,99.90
2019-03-01T02:48:38.757Z,99.90
2019-03-01T02:51:10.029Z,99.90
2019-03-01T02:53:41.352Z,99.90
2019-03-01T02:56:13.125Z,99.80
2019-03-01T02:58:44.437Z,99.70
2019-03-01T03:01:15.825Z,99.60
2019-03-01T03:03:47.282Z,99.60
2019-03-01T03:06:23.031Z,99.60
2019-03-01T03:08:54.501Z,99.70
2019-03-01T03:11:26.102Z,99.60
2019-03-01T03:13:57.420Z,99.60
2019-03-01T03:16:29.298Z,99.70
2019-03-01T03:19:00.518Z,99.40
2019-03-01T03:21:31.796Z,99.30
2019-03-01T03:24:03.234Z,99.10
2019-03-01T03:26:34.502Z,99.30
2019-03-01T03:29:05.839Z,99.20
2019-03-01T03:31:37.238Z,99.20
2019-03-01T03:34:08.593Z,99.40
2019-03-01T03:36:39.843Z,99.60
2019-03-01T03:39:12.931Z,99.50
2019-03-01T03:41:44.294Z,99.90
2019-03-01T03:44:16.132Z,99.90
2019-03-01T03:46:47.511Z,99.90
2019-03-01T03:49:18.843Z,99.80
2019-03-01T03:51:51.236Z,99.90
2019-03-01T03:54:22.599Z,99.90
2019-03-01T03:56:53.994Z,99.90
2019-03-01T03:59:25.537Z,99.90
2019-03-01T04:01:57.183Z,99.90
2019-03-01T04:04:29.715Z,99.90
2019-03-01T04:07:01.048Z,99.90
2019-03-01T04:09:32.592Z,99.90
2019-03-01T04:12:03.934Z,99.90
2019-03-01T04:14:35.241Z,99.90
2019-03-01T04:17:06.714Z,99.90
2019-03-01T04:19:38.150Z,99.90
2019-03-01T04:22:09.474Z,99.90
2019-03-01T04:24:40.926Z,99.90
2019-03-01T04:27:12.191Z,99.90
2019-03-01T04:29:43.576Z,99.90
2019-03-01T04:32:15.048Z,99.90
2019-03-01T04:34:46.572Z,99.90
2019-03-01T04:37:18.110Z,99.90
2019-03-01T04:39:49.488Z,99.90
2019-03-01T04:42:20.735Z,99.90
2019-03-01T04:45:19.545Z,99.90
2019-03-01T04:47:51.060Z,99.90
2019-03-01T04:50:24.603Z,99.90
2019-03-01T04:53:09.120Z,99.90
2019-03-01T04:55:40.700Z,99.90
2019-03-01T04:58:12.067Z,99.90
2019-03-01T05:00:44.905Z,99.90
2019-03-01T05:03:16.252Z,99.90
2019-03-01T05:05:51.146Z,99.90
2019-03-01T05:08:22.409Z,99.90
2019-03-01T05:10:53.774Z,99.90
2019-03-01T05:13:25.084Z,99.90
2019-03-01T05:15:56.524Z,99.90
2019-03-01T05:18:27.943Z,99.90
2019-03-01T05:20:59.239Z,99.90
2019-03-01T05:23:30.491Z,99.90
2019-03-01T05:26:01.949Z,99.90
2019-03-01T05:28:33.288Z,99.90
2019-03-01T05:31:05.779Z,99.90
2019-03-01T05:33:37.077Z,99.90
2019-03-01T05:36:08.643Z,99.90
2019-03-01T05:38:40.019Z,99.90
2019-03-01T05:41:11.504Z,99.90
2019-03-01T05:43:42.814Z,99.90
2019-03-01T05:46:15.334Z,99.90
2019-03-01T05:48:46.687Z,99.90
2019-03-01T05:51:18.463Z,99.90
2019-03-01T05:53:49.721Z,99.90
2019-03-01T05:56:21.089Z,99.90
2019-03-01T05:59:17.628Z,99.90
2019-03-01T06:02:07.853Z,99.90
2019-03-01T06:04:46.319Z,99.90
2019-03-01T06:07:34.421Z,99.90
2019-03-01T06:10:31.254Z,99.90
2019-03-01T06:13:22.083Z,99.90
2019-03-01T06:16:26.732Z,99.90
2019-03-01T06:19:17.693Z,99.90
2019-03-01T06:22:13.116Z,99.90
2019-03-01T06:25:00.995Z,99.90
2019-03-01T06:27:59.612Z,99.90
2019-03-01T06:31:13.625Z,99.90
2019-03-01T06:34:09.960Z,99.90
2019-03-01T06:37:18.761Z,99.90
2019-03-01T06:40:18.704Z,99.90
2019-03-01T06:43:15.663Z,99.90
2019-03-01T06:46:18.579Z,99.90
2019-03-01T06:48:51.584Z,99.90
2019-03-01T06:51:28.818Z,99.90
2019-03-01T06:53:57.581Z,99.90
2019-03-01T06:56:29.951Z,99.90
2019-03-01T06:59:01.297Z,99.90
2019-03-01T07:01:34.388Z,99.90
2019-03-01T07:04:07.440Z,99.90
2019-03-01T07:06:38.709Z,99.90
2019-03-01T07:09:10.046Z,99.90
2019-03-01T07:11:41.448Z,99.90
2019-03-01T07:14:12.945Z,99.90
2019-03-01T07:16:44.205Z,99.90
2019-03-01T07:19:15.552Z,99.90
2019-03-01T07:21:47.932Z,99.90
2019-03-01T07:24:19.415Z,99.90
2019-03-01T07:26:55.676Z,99.90
2019-03-01T07:29:27.139Z,99.90
2019-03-01T07:31:59.493Z,99.90
2019-03-01T07:34:30.972Z,99.90
2019-03-01T07:37:02.459Z,99.90
2019-03-01T07:39:33.826Z,99.90
2019-03-01T07:42:05.186Z,99.90
2019-03-01T07:44:36.561Z,99.90
2019-03-01T07:47:07.881Z,99.90
2019-03-01T07:49:39.260Z,99.90
2019-03-01T07:52:10.518Z,99.90
2019-03-01T07:54:43.033Z,99.90
2019-03-01T07:57:14.946Z,99.70
2019-03-01T07:59:47.022Z,99.00
2019-03-01T08:02:18.377Z,99.20
2019-03-01T08:04:49.675Z,98.70
2019-03-01T08:07:23.625Z,99.10
2019-03-01T08:09:55.442Z,98.90
2019-03-01T08:12:26.693Z,98.80
2019-03-01T08:14:58.102Z,98.90
2019-03-01T08:17:31.523Z,99.10
2019-03-01T08:20:03.586Z,99.00
2019-03-01T08:22:44.778Z,98.80
2019-03-01T08:25:10.626Z,99.00
2019-03-01T08:27:45.846Z,98.80
2019-03-01T08:30:19.553Z,98.90
2019-03-01T08:32:50.849Z,99.00
2019-03-01T08:35:25.263Z,98.70
2019-03-01T08:37:55.122Z,98.70
2019-03-01T08:40:26.467Z,98.70
2019-03-01T08:42:57.820Z,98.90
2019-03-01T08:45:29.790Z,98.50
2019-03-01T08:48:02.098Z,98.50
2019-03-01T08:50:33.564Z,98.30
2019-03-01T08:53:04.996Z,98.20
2019-03-01T08:55:38.831Z,98.60
2019-03-01T08:58:09.486Z,98.40
2019-03-01T09:00:45.097Z,98.20
2019-03-01T09:03:28.548Z,98.30
2019-03-01T09:06:00.999Z,98.20
2019-03-01T09:08:32.402Z,98.70
2019-03-01T09:11:05.670Z,98.40
2019-03-01T09:13:36.739Z,98.40
2019-03-01T09:16:08.066Z,98.70
2019-03-01T09:18:39.392Z,98.70
2019-03-01T09:21:12.932Z,98.80
2019-03-01T09:23:47.961Z,98.80
2019-03-01T09:26:19.943Z,99.00
2019-03-01T09:28:51.262Z,98.90
2019-03-01T09:31:22.668Z,98.90
2019-03-01T09:33:56.542Z,98.90
2019-03-01T09:36:31.222Z,98.90
2019-03-01T09:39:02.599Z,98.90
2019-03-01T09:41:36.604Z,98.90
2019-03-01T09:44:08.396Z,99.10
2019-03-01T09:46:39.739Z,98.90
2019-03-01T09:49:11.031Z,99.00
2019-03-01T09:51:43.684Z,99.00
2019-03-01T09:54:15.346Z,99.00
2019-03-01T09:56:46.700Z,99.10
2019-03-01T09:59:18.059Z,98.50
2019-03-01T10:01:49.443Z,98.40
2019-03-01T10:04:21.758Z,98.30
2019-03-01T10:06:53.067Z,98.10
2019-03-01T10:09:24.384Z,98.00
2019-03-01T10:11:55.757Z,97.80
2019-03-01T10:14:27.055Z,98.00
2019-03-01T10:16:58.351Z,98.10
2019-03-01T10:19:29.673Z,97.90
2019-03-01T10:22:00.982Z,98.00
2019-03-01T10:24:32.302Z,97.70
2019-03-01T10:27:03.589Z,97.80
2019-03-01T10:29:34.852Z,97.60
2019-03-01T10:32:06.391Z,97.40
2019-03-01T10:34:37.771Z,97.50
2019-03-01T10:37:09.127Z,97.40
2019-03-01T10:39:40.441Z,97.40
2019-03-01T10:42:11.739Z,97.40
2019-03-01T10:44:43.040Z,97.10
2019-03-01T10:47:14.333Z,96.80
2019-03-01T10:49:45.579Z,97.20
2019-03-01T10:52:17.794Z,97.20
2019-03-01T10:54:49.036Z,96.90
2019-03-01T10:57:20.395Z,96.70
2019-03-01T10:59:51.635Z,96.90
2019-03-01T11:02:22.933Z,96.80
2019-03-01T11:04:54.170Z,96.90
2019-03-01T11:07:25.686Z,96.60
2019-03-01T11:09:56.990Z,96.20
2019-03-01T11:12:28.312Z,96.40
2019-03-01T11:14:59.607Z,96.20
2019-03-01T11:17:30.927Z,96.20
2019-03-01T11:20:02.260Z,96.60
2019-03-01T11:22:33.712Z,96.50
2019-03-01T11:25:08.771Z,96.40
2019-03-01T11:27:40.150Z,96.50
2019-03-01T11:30:24.854Z,96.40
2019-03-01T11:32:56.215Z,96.30
2019-03-01T11:35:27.618Z,96.30
2019-03-01T11:37:59.199Z,96.30
2019-03-01T11:40:33.376Z,96.30
2019-03-01T11:43:05.462Z,96.40
2019-03-01T11:45:37.334Z,96.80
2019-03-01T11:48:08.840Z,96.50
2019-03-01T11:50:40.223Z,96.20
2019-03-01T11:53:11.925Z,96.10
2019-03-01T11:55:43.225Z,96.70
2019-03-01T11:58:14.719Z,97.10
2019-03-01T12:00:52.008Z,97.40
2019-03-01T12:03:19.051Z,98.20
2019-03-01T12:05:50.297Z,98.00
2019-03-01T12:08:24.206Z,98.20
2019-03-01T12:10:55.442Z,98.10
2019-03-01T12:13:26.832Z,98.10
2019-03-01T12:15:58.213Z,98.30
2019-03-01T12:18:29.577Z,97.70
2019-03-01T12:21:00.926Z,97.40
2019-03-01T12:23:32.248Z,97.40
2019-03-01T12:26:03.557Z,97.80
2019-03-01T12:28:35.909Z,98.60
2019-03-01T12:31:07.310Z,99.20
2019-03-01T12:33:38.698Z,98.40
2019-03-01T12:36:10.193Z,99.30
2019-03-01T12:38:41.654Z,99.40
2019-03-01T12:41:13.094Z,99.70
2019-03-01T12:43:44.386Z,99.20
2019-03-01T12:46:15.703Z,99.50
2019-03-01T12:48:47.033Z,99.40
2019-03-01T12:51:18.441Z,99.30
2019-03-01T12:53:51.261Z,99.20
2019-03-01T12:56:22.499Z,98.40
2019-03-01T12:58:54.006Z,99.30
2019-03-01T13:01:25.432Z,97.90
2019-03-01T13:03:56.746Z,97.50
2019-03-01T13:06:27.993Z,97.40
2019-03-01T13:08:59.291Z,96.70
2019-03-01T13:11:30.615Z,97.30
2019-03-01T13:14:02.174Z,97.30
2019-03-01T13:16:33.656Z,96.70
2019-03-01T13:19:05.019Z,97.10
2019-03-01T13:21:36.342Z,96.10
2019-03-01T13:24:07.796Z,95.60
2019-03-01T13:26:40.879Z,95.10
2019-03-01T13:29:14.040Z,95.00
2019-03-01T13:31:47.084Z,94.60
2019-03-01T13:34:18.411Z,94.40
2019-03-01T13:36:49.659Z,94.60
2019-03-01T13:39:20.992Z,94.50
2019-03-01T13:41:52.302Z,94.90
2019-03-01T13:44:23.536Z,94.20
2019-03-01T13:46:54.781Z,93.50
2019-03-01T13:49:26.815Z,93.60
2019-03-01T13:51:59.251Z,93.90
2019-03-01T13:54:31.680Z,94.30
2019-03-01T13:57:03.518Z,93.90
2019-03-01T13:59:37.610Z,94.30
2019-03-01T14:02:09.662Z,93.80
2019-03-01T14:04:41.382Z,93.80
2019-03-01T14:07:13.846Z,93.70
2019-03-01T14:09:45.146Z,93.90
2019-03-01T14:12:16.449Z,93.40
2019-03-01T14:14:47.793Z,93.80
2019-03-01T14:17:21.186Z,93.70
2019-03-01T14:19:52.104Z,94.00
2019-03-01T14:22:23.353Z,94.20
2019-03-01T14:24:56.694Z,93.70
2019-03-01T14:27:29.561Z,93.90
2019-03-01T14:30:01.009Z,93.60
2019-03-01T14:32:32.398Z,93.70
2019-03-01T14:35:04.079Z,93.90
2019-03-01T14:37:35.399Z,93.70
2019-03-01T14:40:19.120Z,94.00
2019-03-01T14:42:49.116Z,94.40
2019-03-01T14:45:32.313Z,94.60
2019-03-01T14:48:05.015Z,94.40
2019-03-01T14:50:36.720Z,94.80
2019-03-01T14:53:08.226Z,94.80
2019-03-01T14:55:55.638Z,94.40
2019-03-01T14:58:46.668Z,94.20
2019-03-01T15:01:26.677Z,93.90
2019-03-01T15:03:58.451Z,94.10
2019-03-01T15:06:29.854Z,94.00
2019-03-01T15:09:01.177Z,93.80
2019-03-01T15:11:34.189Z,94.00
2019-03-01T15:14:12.092Z,94.50
2019-03-01T15:16:43.364Z,94.00
2019-03-01T15:19:12.820Z,94.00
2019-03-01T15:21:44.072Z,94.20
2019-03-01T15:24:15.387Z,94.80
2019-03-01T15:26:46.625Z,94.70
2019-03-01T15:29:17.990Z,94.80
2019-03-01T15:31:51.255Z,94.60
2019-03-01T15:34:24.084Z,94.70
2019-03-01T15:36:55.953Z,95.20
2019-03-01T15:39:28.093Z,95.30
2019-03-01T15:41:59.510Z,94.90
2019-03-01T15:44:31.159Z,94.90
2019-03-01T15:47:02.477Z,94.80
2019-03-01T15:49:33.733Z,94.50
2019-03-01T15:52:06.222Z,94.20
2019-03-01T15:54:38.629Z,94.30
2019-03-01T15:57:10.266Z,94.20
2019-03-01T15:59:44.339Z,94.50
2019-03-01T16:02:15.601Z,94.30
2019-03-01T16:04:46.933Z,94.30
2019-03-01T16:07:18.487Z,94.40
2019-03-01T16:09:49.798Z,94.10
2019-03-01T16:12:21.046Z,94.30
2019-03-01T16:14:52.430Z,94.40
2019-03-01T16:17:24.735Z,94.50
2019-03-01T16:19:59.358Z,94.70
2019-03-01T16:22:30.697Z,94.90
2019-03-01T16:25:02.071Z,94.70
2019-03-01T16:27:33.473Z,94.50
2019-03-01T16:30:10.695Z,94.50
2019-03-01T16:32:49.751Z,94.80
2019-03-01T16:35:17.483Z,94.90
2019-03-01T16:37:52.049Z,94.80
2019-03-01T16:40:23.465Z,95.00
2019-03-01T16:42:54.832Z,94.90
2019-03-01T16:45:26.898Z,94.90
2019-03-01T16:47:58.174Z,94.90
2019-03-01T16:50:29.497Z,95.10
2019-03-01T16:53:04.279Z,95.20
2019-03-01T16:55:35.836Z,95.40
2019-03-01T16:58:07.430Z,95.50
2019-03-01T17:00:43.696Z,95.60
2019-03-01T17:03:18.122Z,95.50
2019-03-01T17:05:49.806Z,95.60
2019-03-01T17:08:21.060Z,95.40
2019-03-01T17:10:52.346Z,95.80
2019-03-01T17:13:26.932Z,95.90
2019-03-01T17:15:59.397Z,96.00
2019-03-01T17:18:30.678Z,95.90
2019-03-01T17:21:02.055Z,95.90
2019-03-01T17:23:35.963Z,96.00
2019-03-01T17:26:06.518Z,96.00
2019-03-01T17:28:38.749Z,96.10
2019-03-01T17:31:10.557Z,96.00
2019-03-01T17:33:45.058Z,96.30
2019-03-01T17:36:17.049Z,96.10
2019-03-01T17:38:49.429Z,96.30
2019-03-01T17:41:20.664Z,95.70
2019-03-01T17:43:51.974Z,95.90
2019-03-01T17:46:25.422Z,96.00
2019-03-01T17:48:57.393Z,96.10
2019-03-01T17:51:29.714Z,96.10
2019-03-01T17:54:02.296Z,96.10
2019-03-01T17:56:33.603Z,96.10
2019-03-01T17:59:08.311Z,96.20
2019-03-01T18:01:41.156Z,96.30
2019-03-01T18:04:12.454Z,96.30
2019-03-01T18:06:43.692Z,96.40
2019-03-01T18:09:16.167Z,96.40
2019-03-01T18:11:48.249Z,96.40
2019-03-01T18:14:19.863Z,96.40
2019-03-01T18:16:57.158Z,96.30
2019-03-01T18:19:27.689Z,96.30
2019-03-01T18:21:59.148Z,96.20
2019-03-01T18:24:30.641Z,96.20
2019-03-01T18:27:02.144Z,96.20
2019-03-01T18:29:33.437Z,96.10
2019-03-01T18:32:07.039Z,96.70
2019-03-01T18:34:40.483Z,96.30
2019-03-01T18:37:19.438Z,96.40
2019-03-01T18:39:45.042Z,96.40
2019-03-01T18:42:16.321Z,96.30
2019-03-01T18:44:49.723Z,96.30
2019-03-01T18:47:21.357Z,96.30
2019-03-01T18:49:55.293Z,96.30
2019-03-01T18:52:27.354Z,96.50
2019-03-01T18:55:01.157Z,96.40
2019-03-01T18:57:35.452Z,96.50
2019-03-01T19:00:37.079Z,96.70
2019-03-01T19:03:09.001Z,96.70
2019-03-01T19:05:41.327Z,96.80
2019-03-01T19:08:13.890Z,96.90
2019-03-01T19:10:54.007Z,97.00
2019-03-01T19:13:20.741Z,97.20
2019-03-01T19:15:54.430Z,97.20
2019-03-01T19:18:27.170Z,97.30
2019-03-01T19:20:58.474Z,97.20
2019-03-01T19:23:35.915Z,97.20
2019-03-01T19:26:07.357Z,97.40
2019-03-01T19:28:39.340Z,97.40
2019-03-01T19:31:10.685Z,97.50
2019-03-01T19:33:42.069Z,97.50
2019-03-01T19:36:13.484Z,97.60
2019-03-01T19:38:46.416Z,97.70
2019-03-01T19:41:28.929Z,97.70
2019-03-01T19:44:00.615Z,97.60
2019-03-01T19:46:32.654Z,97.60
2019-03-01T19:49:04.040Z,97.70
2019-03-01T19:51:37.477Z,97.70
2019-03-01T19:54:09.883Z,97.70
2019-03-01T19:56:41.413Z,97.60
2019-03-01T19:59:12.738Z,97.60
2019-03-01T20:01:44.806Z,97.50
2019-03-01T20:04:17.718Z,97.60
2019-03-01T20:06:49.582Z,98.00
2019-03-01T20:09:23.831Z,97.60
2019-03-01T20:11:55.278Z,97.70
2019-03-01T20:14:26.693Z,97.60
2019-03-01T20:16:58.997Z,97.70
2019-03-01T20:19:31.528Z,97.80
2019-03-01T20:22:02.868Z,97.70
2019-03-01T20:24:39.979Z,97.80
2019-03-01T20:27:19.463Z,97.60
2019-03-01T20:29:49.538Z,97.60
2019-03-01T20:32:20.357Z,97.60
2019-03-01T20:34:51.712Z,97.60
2019-03-01T20:37:24.670Z,97.80
2019-03-01T20:39:56.820Z,97.30
2019-03-01T20:42:28.118Z,97.60
2019-03-01T20:44:59.413Z,97.80
2019-03-01T20:47:30.727Z,97.80
2019-03-01T20:50:03.523Z,98.00
2019-03-01T20:52:38.056Z,97.80
2019-03-01T20:55:13.320Z,97.90
2019-03-01T20:57:44.562Z,97.80
2019-03-01T21:00:25.809Z,97.90
2019-03-01T21:02:55.762Z,97.90
2019-03-01T21:05:28.838Z,98.00
2019-03-01T21:08:00.319Z,97.90
2019-03-01T21:10:33.255Z,98.00
2019-03-01T21:13:04.567Z,97.90
2019-03-01T21:15:37.704Z,97.90
2019-03-01T21:18:09.283Z,98.00
2019-03-01T21:20:40.710Z,98.00
2019-03-01T21:23:15.199Z,98.00
2019-03-01T21:25:45.228Z,98.20
2019-03-01T21:28:16.539Z,98.30
2019-03-01T21:30:47.823Z,98.30
2019-03-01T21:33:19.111Z,98.30
2019-03-01T21:35:51.174Z,98.20
2019-03-01T21:38:23.377Z,98.30
2019-03-01T21:40:54.693Z,98.20
2019-03-01T21:43:25.989Z,98.30
2019-03-01T21:45:58.862Z,98.20
2019-03-01T21:48:30.378Z,98.20
2019-03-01T21:51:01.621Z,98.10
2019-03-01T21:53:32.942Z,98.10
2019-03-01T21:56:04.589Z,98.20
2019-03-01T21:58:38.636Z,98.10
2019-03-01T22:01:10.387Z,98.20
2019-03-01T22:03:41.688Z,98.50
2019-03-01T22:06:12.950Z,98.30
2019-03-01T22:08:44.741Z,98.30
2019-03-01T22:11:17.254Z,98.30
2019-03-01T22:13:48.616Z,98.40
2019-03-01T22:16:19.951Z,98.70
2019-03-01T22:18:51.254Z,98.80
2019-03-01T22:21:23.548Z,99.10
2019-03-01T22:23:54.957Z,99.30
2019-03-01T22:26:28.970Z,99.50
2019-03-01T22:29:01.444Z,99.60
2019-03-01T22:31:35.428Z,99.60
2019-03-01T22:34:06.851Z,99.70
2019-03-01T22:36:38.173Z,99.80
2019-03-01T22:39:09.538Z,99.70
2019-03-01T22:41:41.045Z,99.90
2019-03-01T22:44:12.569Z,99.80
2019-03-01T22:46:43.754Z,99.30
2019-03-01T22:49:15.103Z,98.80
2019-03-01T22:51:49.545Z,98.60
2019-03-01T22:54:19.479Z,98.60
2019-03-01T22:56:50.712Z,98.50
2019-03-01T22:59:22.031Z,98.30
2019-03-01T23:01:53.466Z,98.30
2019-03-01T23:04:26.647Z,98.40
2019-03-01T23:06:57.946Z,98.70
2019-03-01T23:09:29.730Z,98.70
2019-03-01T23:12:04.626Z,98.80
2019-03-01T23:14:35.683Z,98.60
2019-03-01T23:17:07.065Z,98.30
2019-03-01T23:19:39.239Z,98.40
2019-03-01T23:22:11.803Z,98.20
2019-03-01T23:24:43.267Z,98.00
2019-03-01T23:27:14.577Z,98.10
2019-03-01T23:29:47.015Z,97.80
2019-03-01T23:32:18.328Z,97.30
2019-03-01T23:34:49.697Z,97.30
2019-03-01T23:37:21.019Z,97.60
2019-03-01T23:39:52.416Z,97.50
2019-03-01T23:42:29.467Z,97.20
2019-03-01T23:45:00.838Z,97.10
2019-03-01T23:47:34.641Z,97.10
2019-03-01T23:50:07.711Z,97.20
2019-03-01T23:52:38.967Z,97.20
2019-03-01T23:55:10.533Z,97.50
2019-03-01T23:57:41.975Z,97.40
